sensor_id;sensor_type;location;lat;lon;timestamp;P1;durP1;ratioP1;P2;durP2;ratioP2
5245;SDS011;54412;51.206;6.888;2024-03-17T00:02:08;7.60;;;4.67;;
5245;SDS011;54412;51.206;6.888;2024-03-17T00:04:34;6.00;;;4.23;;
5245;SDS011;54412;51.206;6.888;2024-03-17T00:07:00;10.47;;;4.30;;
5245;SDS011;54412;51.206;6.888;2024-03-17T00:09:26;11.43;;;5.00;;
5245;SDS011;54412;51.206;6.888;2024-03-17T00:11:51;7.40;;;4.00;;
5245;SDS011;54412;51.206;6.888;2024-03-17T00:14:17;4.87;;;3.60;;
5245;SDS011;54412;51.206;6.888;2024-03-17T00:16:43;8.90;;;4.60;;
5245;SDS011;54412;51.206;6.888;2024-03-17T00:19:09;5.70;;;4.50;;
5245;SDS011;54412;51.206;6.888;2024-03-17T00:21:35;7.70;;;3.93;;
5245;SDS011;54412;51.206;6.888;2024-03-17T00:24:01;9.73;;;4.73;;
5245;SDS011;54412;51.206;6.888;2024-03-17T00:26:27;12.00;;;4.10;;
5245;SDS011;54412;51.206;6.888;2024-03-17T00:28:54;13.03;;;4.17;;
5245;SDS011;54412;51.206;6.888;2024-03-17T00:31:20;9.10;;;5.47;;
5245;SDS011;54412;51.206;6.888;2024-03-17T00:33:46;7.23;;;4.87;;
5245;SDS011;54412;51.206;6.888;2024-03-17T00:36:11;5.83;;;4.10;;
5245;SDS011;54412;51.206;6.888;2024-03-17T00:38:37;7.67;;;4.43;;
5245;SDS011;54412;51.206;6.888;2024-03-17T00:41:03;8.40;;;4.83;;
5245;SDS011;54412;51.206;6.888;2024-03-17T00:43:29;8.10;;;4.70;;
5245;SDS011;54412;51.206;6.888;2024-03-17T00:45:55;5.63;;;3.50;;
5245;SDS011;54412;51.206;6.888;2024-03-17T00:48:21;7.53;;;4.37;;
5245;SDS011;54412;51.206;6.888;2024-03-17T00:50:46;7.90;;;4.30;;
5245;SDS011;54412;51.206;6.888;2024-03-17T00:53:27;21.33;;;5.13;;
5245;SDS011;54412;51.206;6.888;2024-03-17T00:55:57;8.80;;;3.90;;
5245;SDS011;54412;51.206;6.888;2024-03-17T00:58:23;8.10;;;4.37;;
5245;SDS011;54412;51.206;6.888;2024-03-17T01:00:49;12.40;;;6.20;;
5245;SDS011;54412;51.206;6.888;2024-03-17T01:03:16;8.37;;;4.60;;
5245;SDS011;54412;51.206;6.888;2024-03-17T01:05:42;10.73;;;4.03;;
5245;SDS011;54412;51.206;6.888;2024-03-17T01:08:10;4.63;;;3.37;;
5245;SDS011;54412;51.206;6.888;2024-03-17T01:10:42;6.23;;;3.70;;
5245;SDS011;54412;51.206;6.888;2024-03-17T01:13:10;5.47;;;4.00;;
5245;SDS011;54412;51.206;6.888;2024-03-17T01:15:36;5.27;;;3.57;;
5245;SDS011;54412;51.206;6.888;2024-03-17T01:18:05;7.80;;;3.50;;
5245;SDS011;54412;51.206;6.888;2024-03-17T01:20:32;4.60;;;4.20;;
5245;SDS011;54412;51.206;6.888;2024-03-17T01:23:00;6.13;;;4.33;;
5245;SDS011;54412;51.206;6.888;2024-03-17T01:25:27;9.67;;;4.60;;
5245;SDS011;54412;51.206;6.888;2024-03-17T01:27:54;8.13;;;4.90;;
5245;SDS011;54412;51.206;6.888;2024-03-17T01:30:21;9.63;;;4.50;;
5245;SDS011;54412;51.206;6.888;2024-03-17T01:32:47;9.30;;;3.70;;
5245;SDS011;54412;51.206;6.888;2024-03-17T01:35:16;6.70;;;4.30;;
5245;SDS011;54412;51.206;6.888;2024-03-17T01:37:42;7.80;;;4.43;;
5245;SDS011;54412;51.206;6.888;2024-03-17T01:40:08;8.10;;;3.90;;
5245;SDS011;54412;51.206;6.888;2024-03-17T01:42:38;6.93;;;3.40;;
5245;SDS011;54412;51.206;6.888;2024-03-17T01:45:24;6.77;;;3.90;;
5245;SDS011;54412;51.206;6.888;2024-03-17T01:47:53;6.10;;;3.60;;
5245;SDS011;54412;51.206;6.888;2024-03-17T01:50:23;6.20;;;3.83;;
5245;SDS011;54412;51.206;6.888;2024-03-17T01:52:58;6.77;;;3.53;;
5245;SDS011;54412;51.206;6.888;2024-03-17T01:55:26;5.80;;;4.63;;
5245;SDS011;54412;51.206;6.888;2024-03-17T01:57:53;5.20;;;3.57;;
5245;SDS011;54412;51.206;6.888;2024-03-17T02:00:20;3.70;;;3.30;;
5245;SDS011;54412;51.206;6.888;2024-03-17T02:02:46;8.03;;;3.80;;
5245;SDS011;54412;51.206;6.888;2024-03-17T02:05:12;5.77;;;3.80;;
5245;SDS011;54412;51.206;6.888;2024-03-17T02:07:38;8.50;;;4.20;;
5245;SDS011;54412;51.206;6.888;2024-03-17T02:10:04;7.10;;;3.87;;
5245;SDS011;54412;51.206;6.888;2024-03-17T02:12:30;9.60;;;3.87;;
5245;SDS011;54412;51.206;6.888;2024-03-17T02:14:57;6.07;;;3.97;;
5245;SDS011;54412;51.206;6.888;2024-03-17T02:17:24;9.23;;;4.10;;
5245;SDS011;54412;51.206;6.888;2024-03-17T02:19:53;5.67;;;3.63;;
5245;SDS011;54412;51.206;6.888;2024-03-17T02:22:19;4.47;;;3.50;;
5245;SDS011;54412;51.206;6.888;2024-03-17T02:24:45;5.00;;;3.77;;
5245;SDS011;54412;51.206;6.888;2024-03-17T02:27:11;7.37;;;4.07;;
5245;SDS011;54412;51.206;6.888;2024-03-17T02:29:37;9.67;;;3.90;;
5245;SDS011;54412;51.206;6.888;2024-03-17T02:32:04;6.57;;;4.03;;
5245;SDS011;54412;51.206;6.888;2024-03-17T02:34:36;6.20;;;3.50;;
5245;SDS011;54412;51.206;6.888;2024-03-17T02:37:04;4.53;;;3.27;;
5245;SDS011;54412;51.206;6.888;2024-03-17T02:39:31;6.27;;;3.77;;
5245;SDS011;54412;51.206;6.888;2024-03-17T02:42:00;10.73;;;4.40;;
5245;SDS011;54412;51.206;6.888;2024-03-17T02:44:27;3.50;;;3.20;;
5245;SDS011;54412;51.206;6.888;2024-03-17T02:46:55;6.27;;;4.67;;
5245;SDS011;54412;51.206;6.888;2024-03-17T02:49:26;4.77;;;4.37;;
5245;SDS011;54412;51.206;6.888;2024-03-17T02:51:53;7.07;;;3.90;;
5245;SDS011;54412;51.206;6.888;2024-03-17T02:54:20;7.17;;;4.00;;
5245;SDS011;54412;51.206;6.888;2024-03-17T02:56:47;7.40;;;4.00;;
5245;SDS011;54412;51.206;6.888;2024-03-17T02:59:13;8.77;;;4.77;;
5245;SDS011;54412;51.206;6.888;2024-03-17T03:01:39;5.60;;;4.00;;
5245;SDS011;54412;51.206;6.888;2024-03-17T03:04:05;7.67;;;4.20;;
5245;SDS011;54412;51.206;6.888;2024-03-17T03:06:31;6.90;;;4.73;;
5245;SDS011;54412;51.206;6.888;2024-03-17T03:08:58;6.33;;;4.73;;
5245;SDS011;54412;51.206;6.888;2024-03-17T03:11:25;9.67;;;5.50;;
5245;SDS011;54412;51.206;6.888;2024-03-17T03:13:50;8.03;;;5.17;;
5245;SDS011;54412;51.206;6.888;2024-03-17T03:16:16;8.47;;;4.90;;
5245;SDS011;54412;51.206;6.888;2024-03-17T03:18:43;6.47;;;5.10;;
5245;SDS011;54412;51.206;6.888;2024-03-17T03:21:10;7.23;;;4.40;;
5245;SDS011;54412;51.206;6.888;2024-03-17T03:23:37;11.03;;;5.20;;
5245;SDS011;54412;51.206;6.888;2024-03-17T03:26:03;7.37;;;4.47;;
5245;SDS011;54412;51.206;6.888;2024-03-17T03:28:30;7.57;;;4.70;;
5245;SDS011;54412;51.206;6.888;2024-03-17T03:30:58;6.00;;;4.90;;
5245;SDS011;54412;51.206;6.888;2024-03-17T03:33:24;7.00;;;4.70;;
5245;SDS011;54412;51.206;6.888;2024-03-17T03:35:50;7.57;;;5.13;;
5245;SDS011;54412;51.206;6.888;2024-03-17T03:38:17;10.30;;;6.57;;
5245;SDS011;54412;51.206;6.888;2024-03-17T03:40:44;8.63;;;5.57;;
5245;SDS011;54412;51.206;6.888;2024-03-17T03:43:10;8.30;;;4.83;;
5245;SDS011;54412;51.206;6.888;2024-03-17T03:45:38;7.90;;;5.83;;
5245;SDS011;54412;51.206;6.888;2024-03-17T03:48:05;8.70;;;5.87;;
5245;SDS011;54412;51.206;6.888;2024-03-17T03:50:33;9.10;;;4.83;;
5245;SDS011;54412;51.206;6.888;2024-03-17T03:53:00;8.53;;;6.57;;
5245;SDS011;54412;51.206;6.888;2024-03-17T03:55:26;10.40;;;5.60;;
5245;SDS011;54412;51.206;6.888;2024-03-17T03:57:52;7.30;;;6.20;;
5245;SDS011;54412;51.206;6.888;2024-03-17T04:00:18;7.97;;;5.47;;
5245;SDS011;54412;51.206;6.888;2024-03-17T04:02:49;9.73;;;6.33;;
5245;SDS011;54412;51.206;6.888;2024-03-17T04:05:17;8.20;;;5.87;;
5245;SDS011;54412;51.206;6.888;2024-03-17T04:07:45;13.00;;;6.73;;
5245;SDS011;54412;51.206;6.888;2024-03-17T04:10:13;14.23;;;6.00;;
5245;SDS011;54412;51.206;6.888;2024-03-17T04:12:40;12.50;;;6.27;;
5245;SDS011;54412;51.206;6.888;2024-03-17T04:15:07;8.97;;;5.97;;
5245;SDS011;54412;51.206;6.888;2024-03-17T04:17:35;9.50;;;6.30;;
5245;SDS011;54412;51.206;6.888;2024-03-17T04:20:02;11.17;;;6.90;;
5245;SDS011;54412;51.206;6.888;2024-03-17T04:22:33;9.40;;;7.60;;
5245;SDS011;54412;51.206;6.888;2024-03-17T04:24:59;9.87;;;6.87;;
5245;SDS011;54412;51.206;6.888;2024-03-17T04:27:26;10.30;;;7.60;;
5245;SDS011;54412;51.206;6.888;2024-03-17T04:29:52;9.07;;;6.57;;
5245;SDS011;54412;51.206;6.888;2024-03-17T04:32:20;6.60;;;6.00;;
5245;SDS011;54412;51.206;6.888;2024-03-17T04:34:46;13.37;;;7.23;;
5245;SDS011;54412;51.206;6.888;2024-03-17T04:37:13;7.53;;;6.50;;
5245;SDS011;54412;51.206;6.888;2024-03-17T04:39:43;13.00;;;7.07;;
5245;SDS011;54412;51.206;6.888;2024-03-17T04:42:11;7.57;;;6.77;;
5245;SDS011;54412;51.206;6.888;2024-03-17T04:44:39;6.97;;;6.33;;
5245;SDS011;54412;51.206;6.888;2024-03-17T04:47:06;8.37;;;6.57;;
5245;SDS011;54412;51.206;6.888;2024-03-17T04:49:32;6.93;;;5.70;;
5245;SDS011;54412;51.206;6.888;2024-03-17T04:52:02;7.70;;;6.40;;
5245;SDS011;54412;51.206;6.888;2024-03-17T04:54:30;11.00;;;6.70;;
5245;SDS011;54412;51.206;6.888;2024-03-17T04:56:56;11.53;;;7.23;;
5245;SDS011;54412;51.206;6.888;2024-03-17T04:59:22;9.40;;;6.40;;
5245;SDS011;54412;51.206;6.888;2024-03-17T05:01:49;8.47;;;6.40;;
5245;SDS011;54412;51.206;6.888;2024-03-17T05:04:15;10.53;;;6.37;;
5245;SDS011;54412;51.206;6.888;2024-03-17T05:06:40;11.20;;;7.13;;
5245;SDS011;54412;51.206;6.888;2024-03-17T05:09:07;8.87;;;6.60;;
5245;SDS011;54412;51.206;6.888;2024-03-17T05:11:33;7.00;;;5.80;;
5245;SDS011;54412;51.206;6.888;2024-03-17T05:14:00;7.47;;;6.43;;
5245;SDS011;54412;51.206;6.888;2024-03-17T05:16:26;13.27;;;6.87;;
5245;SDS011;54412;51.206;6.888;2024-03-17T05:18:54;9.07;;;5.83;;
5245;SDS011;54412;51.206;6.888;2024-03-17T05:21:21;8.27;;;5.53;;
5245;SDS011;54412;51.206;6.888;2024-03-17T05:23:50;6.00;;;5.40;;
5245;SDS011;54412;51.206;6.888;2024-03-17T05:26:17;10.47;;;6.20;;
5245;SDS011;54412;51.206;6.888;2024-03-17T05:28:43;8.10;;;6.27;;
5245;SDS011;54412;51.206;6.888;2024-03-17T05:31:09;5.90;;;5.40;;
5245;SDS011;54412;51.206;6.888;2024-03-17T05:33:38;6.17;;;5.50;;
5245;SDS011;54412;51.206;6.888;2024-03-17T05:36:04;6.77;;;5.10;;
5245;SDS011;54412;51.206;6.888;2024-03-17T05:38:31;7.40;;;5.63;;
5245;SDS011;54412;51.206;6.888;2024-03-17T05:41:00;7.30;;;5.70;;
5245;SDS011;54412;51.206;6.888;2024-03-17T05:43:30;7.70;;;5.60;;
5245;SDS011;54412;51.206;6.888;2024-03-17T05:45:58;8.87;;;5.20;;
5245;SDS011;54412;51.206;6.888;2024-03-17T05:48:31;9.10;;;5.70;;
5245;SDS011;54412;51.206;6.888;2024-03-17T05:50:57;8.37;;;5.70;;
5245;SDS011;54412;51.206;6.888;2024-03-17T05:53:26;6.67;;;5.40;;
5245;SDS011;54412;51.206;6.888;2024-03-17T05:55:51;5.37;;;4.87;;
5245;SDS011;54412;51.206;6.888;2024-03-17T05:58:17;6.93;;;5.00;;
5245;SDS011;54412;51.206;6.888;2024-03-17T06:00:43;8.53;;;5.67;;
5245;SDS011;54412;51.206;6.888;2024-03-17T06:03:09;6.00;;;5.20;;
5245;SDS011;54412;51.206;6.888;2024-03-17T06:05:36;7.27;;;5.33;;
5245;SDS011;54412;51.206;6.888;2024-03-17T06:08:05;6.17;;;4.93;;
5245;SDS011;54412;51.206;6.888;2024-03-17T06:10:33;9.80;;;5.60;;
5245;SDS011;54412;51.206;6.888;2024-03-17T06:13:02;8.50;;;4.87;;
5245;SDS011;54412;51.206;6.888;2024-03-17T06:15:28;9.30;;;5.43;;
5245;SDS011;54412;51.206;6.888;2024-03-17T06:17:55;7.03;;;4.80;;
5245;SDS011;54412;51.206;6.888;2024-03-17T06:20:22;5.50;;;4.60;;
5245;SDS011;54412;51.206;6.888;2024-03-17T06:22:52;5.97;;;5.37;;
5245;SDS011;54412;51.206;6.888;2024-03-17T06:25:18;13.57;;;5.83;;
5245;SDS011;54412;51.206;6.888;2024-03-17T06:27:44;6.77;;;5.23;;
5245;SDS011;54412;51.206;6.888;2024-03-17T06:30:13;6.90;;;4.30;;
5245;SDS011;54412;51.206;6.888;2024-03-17T06:32:39;6.50;;;4.97;;
5245;SDS011;54412;51.206;6.888;2024-03-17T06:35:12;5.83;;;5.33;;
5245;SDS011;54412;51.206;6.888;2024-03-17T06:37:43;6.40;;;5.03;;
5245;SDS011;54412;51.206;6.888;2024-03-17T06:40:11;7.80;;;5.30;;
5245;SDS011;54412;51.206;6.888;2024-03-17T06:42:39;9.60;;;5.50;;
5245;SDS011;54412;51.206;6.888;2024-03-17T06:45:06;12.73;;;5.30;;
5245;SDS011;54412;51.206;6.888;2024-03-17T06:47:34;5.67;;;5.17;;
5245;SDS011;54412;51.206;6.888;2024-03-17T06:50:05;6.70;;;5.60;;
5245;SDS011;54412;51.206;6.888;2024-03-17T06:52:35;6.37;;;5.87;;
5245;SDS011;54412;51.206;6.888;2024-03-17T06:55:01;7.10;;;5.20;;
5245;SDS011;54412;51.206;6.888;2024-03-17T06:57:27;7.07;;;6.03;;
5245;SDS011;54412;51.206;6.888;2024-03-17T06:59:53;9.57;;;6.87;;
5245;SDS011;54412;51.206;6.888;2024-03-17T07:02:19;7.73;;;5.63;;
5245;SDS011;54412;51.206;6.888;2024-03-17T07:04:45;6.83;;;4.90;;
5245;SDS011;54412;51.206;6.888;2024-03-17T07:07:12;7.90;;;5.33;;
5245;SDS011;54412;51.206;6.888;2024-03-17T07:09:39;6.07;;;5.20;;
5245;SDS011;54412;51.206;6.888;2024-03-17T07:12:09;6.50;;;4.97;;
5245;SDS011;54412;51.206;6.888;2024-03-17T07:14:36;5.43;;;4.60;;
5245;SDS011;54412;51.206;6.888;2024-03-17T07:17:02;5.63;;;5.00;;
5245;SDS011;54412;51.206;6.888;2024-03-17T07:19:29;6.80;;;5.07;;
5245;SDS011;54412;51.206;6.888;2024-03-17T07:21:56;5.30;;;4.40;;
5245;SDS011;54412;51.206;6.888;2024-03-17T07:24:22;8.03;;;4.60;;
5245;SDS011;54412;51.206;6.888;2024-03-17T07:26:48;5.30;;;4.80;;
5245;SDS011;54412;51.206;6.888;2024-03-17T07:29:15;4.83;;;4.10;;
5245;SDS011;54412;51.206;6.888;2024-03-17T07:31:41;7.03;;;5.00;;
5245;SDS011;54412;51.206;6.888;2024-03-17T07:34:07;7.40;;;4.90;;
5245;SDS011;54412;51.206;6.888;2024-03-17T07:36:33;9.33;;;5.50;;
5245;SDS011;54412;51.206;6.888;2024-03-17T07:38:59;10.90;;;4.77;;
5245;SDS011;54412;51.206;6.888;2024-03-17T07:41:25;4.90;;;4.27;;
5245;SDS011;54412;51.206;6.888;2024-03-17T07:43:50;4.60;;;4.20;;
5245;SDS011;54412;51.206;6.888;2024-03-17T07:46:16;8.93;;;4.90;;
5245;SDS011;54412;51.206;6.888;2024-03-17T07:48:43;4.20;;;3.80;;
5245;SDS011;54412;51.206;6.888;2024-03-17T07:51:10;4.70;;;4.30;;
5245;SDS011;54412;51.206;6.888;2024-03-17T07:53:38;7.80;;;4.70;;
5245;SDS011;54412;51.206;6.888;2024-03-17T07:56:16;4.53;;;4.13;;
5245;SDS011;54412;51.206;6.888;2024-03-17T07:58:43;6.53;;;4.30;;
5245;SDS011;54412;51.206;6.888;2024-03-17T08:01:11;3.90;;;3.60;;
5245;SDS011;54412;51.206;6.888;2024-03-17T08:03:39;6.73;;;3.77;;
5245;SDS011;54412;51.206;6.888;2024-03-17T08:06:06;4.10;;;3.70;;
5245;SDS011;54412;51.206;6.888;2024-03-17T08:08:33;4.07;;;3.60;;
5245;SDS011;54412;51.206;6.888;2024-03-17T08:11:00;3.10;;;2.90;;
5245;SDS011;54412;51.206;6.888;2024-03-17T08:13:28;3.67;;;3.30;;
5245;SDS011;54412;51.206;6.888;2024-03-17T08:16:00;4.27;;;3.87;;
5245;SDS011;54412;51.206;6.888;2024-03-17T08:18:31;5.43;;;3.23;;
5245;SDS011;54412;51.206;6.888;2024-03-17T08:20:59;6.90;;;3.53;;
5245;SDS011;54412;51.206;6.888;2024-03-17T08:23:28;6.80;;;4.23;;
5245;SDS011;54412;51.206;6.888;2024-03-17T08:25:58;4.07;;;3.77;;
5245;SDS011;54412;51.206;6.888;2024-03-17T08:28:26;5.50;;;3.80;;
5245;SDS011;54412;51.206;6.888;2024-03-17T08:33:23;3.93;;;3.63;;
5245;SDS011;54412;51.206;6.888;2024-03-17T08:35:56;7.87;;;3.50;;
5245;SDS011;54412;51.206;6.888;2024-03-17T08:38:25;3.63;;;3.20;;
5245;SDS011;54412;51.206;6.888;2024-03-17T08:40:53;5.77;;;3.63;;
5245;SDS011;54412;51.206;6.888;2024-03-17T08:43:20;6.43;;;3.00;;
5245;SDS011;54412;51.206;6.888;2024-03-17T08:45:57;5.17;;;2.80;;
5245;SDS011;54412;51.206;6.888;2024-03-17T08:48:28;3.93;;;3.30;;
5245;SDS011;54412;51.206;6.888;2024-03-17T08:50:57;3.63;;;2.80;;
5245;SDS011;54412;51.206;6.888;2024-03-17T08:53:25;5.53;;;3.40;;
5245;SDS011;54412;51.206;6.888;2024-03-17T08:55:51;5.47;;;3.50;;
5245;SDS011;54412;51.206;6.888;2024-03-17T08:58:18;4.43;;;3.13;;
5245;SDS011;54412;51.206;6.888;2024-03-17T09:00:44;6.37;;;3.20;;
5245;SDS011;54412;51.206;6.888;2024-03-17T09:03:10;6.20;;;2.87;;
5245;SDS011;54412;51.206;6.888;2024-03-17T09:05:40;3.90;;;3.27;;
5245;SDS011;54412;51.206;6.888;2024-03-17T09:08:16;4.93;;;3.50;;
5245;SDS011;54412;51.206;6.888;2024-03-17T09:10:48;3.93;;;3.63;;
5245;SDS011;54412;51.206;6.888;2024-03-17T09:13:24;3.57;;;3.27;;
5245;SDS011;54412;51.206;6.888;2024-03-17T09:15:54;4.33;;;2.90;;
5245;SDS011;54412;51.206;6.888;2024-03-17T09:18:25;4.67;;;3.43;;
5245;SDS011;54412;51.206;6.888;2024-03-17T09:21:05;5.80;;;3.30;;
5245;SDS011;54412;51.206;6.888;2024-03-17T09:23:32;6.00;;;2.97;;
5245;SDS011;54412;51.206;6.888;2024-03-17T09:26:00;4.37;;;3.20;;
5245;SDS011;54412;51.206;6.888;2024-03-17T09:28:31;4.87;;;3.53;;
5245;SDS011;54412;51.206;6.888;2024-03-17T09:30:58;3.20;;;2.73;;
5245;SDS011;54412;51.206;6.888;2024-03-17T09:33:25;4.73;;;2.83;;
5245;SDS011;54412;51.206;6.888;2024-03-17T09:35:55;4.27;;;2.73;;
5245;SDS011;54412;51.206;6.888;2024-03-17T09:38:25;3.40;;;2.80;;
5245;SDS011;54412;51.206;6.888;2024-03-17T09:40:52;5.47;;;2.90;;
5245;SDS011;54412;51.206;6.888;2024-03-17T09:43:20;3.70;;;3.20;;
5245;SDS011;54412;51.206;6.888;2024-03-17T09:45:47;3.57;;;2.97;;
5245;SDS011;54412;51.206;6.888;2024-03-17T09:48:15;3.70;;;2.87;;
5245;SDS011;54412;51.206;6.888;2024-03-17T09:50:44;3.30;;;2.50;;
5245;SDS011;54412;51.206;6.888;2024-03-17T09:55:59;3.07;;;2.80;;
5245;SDS011;54412;51.206;6.888;2024-03-17T09:58:36;3.10;;;2.90;;
5245;SDS011;54412;51.206;6.888;2024-03-17T10:01:02;3.27;;;3.00;;
5245;SDS011;54412;51.206;6.888;2024-03-17T10:06:22;8.07;;;3.27;;
5245;SDS011;54412;51.206;6.888;2024-03-17T10:08:50;3.13;;;2.83;;
5245;SDS011;54412;51.206;6.888;2024-03-17T10:11:19;3.97;;;2.80;;
5245;SDS011;54412;51.206;6.888;2024-03-17T10:13:59;2.83;;;2.60;;
5245;SDS011;54412;51.206;6.888;2024-03-17T10:16:33;14.73;;;3.17;;
5245;SDS011;54412;51.206;6.888;2024-03-17T10:19:10;5.13;;;2.60;;
5245;SDS011;54412;51.206;6.888;2024-03-17T10:21:59;7.80;;;3.50;;
5245;SDS011;54412;51.206;6.888;2024-03-17T10:24:26;6.00;;;2.80;;
5245;SDS011;54412;51.206;6.888;2024-03-17T10:26:57;3.90;;;2.93;;
5245;SDS011;54412;51.206;6.888;2024-03-17T10:29:28;3.93;;;2.50;;
5245;SDS011;54412;51.206;6.888;2024-03-17T10:31:59;3.67;;;2.90;;
5245;SDS011;54412;51.206;6.888;2024-03-17T10:34:29;9.23;;;3.10;;
5245;SDS011;54412;51.206;6.888;2024-03-17T10:37:15;3.87;;;3.07;;
5245;SDS011;54412;51.206;6.888;2024-03-17T10:39:45;3.17;;;2.87;;
5245;SDS011;54412;51.206;6.888;2024-03-17T10:42:14;4.93;;;2.70;;
5245;SDS011;54412;51.206;6.888;2024-03-17T10:44:53;4.63;;;2.90;;
5245;SDS011;54412;51.206;6.888;2024-03-17T10:47:27;4.27;;;2.70;;
5245;SDS011;54412;51.206;6.888;2024-03-17T10:49:54;2.80;;;2.60;;
5245;SDS011;54412;51.206;6.888;2024-03-17T10:52:21;5.30;;;3.00;;
5245;SDS011;54412;51.206;6.888;2024-03-17T10:54:51;4.43;;;3.47;;
5245;SDS011;54412;51.206;6.888;2024-03-17T11:00:00;8.63;;;3.90;;
5245;SDS011;54412;51.206;6.888;2024-03-17T11:02:31;6.10;;;2.87;;
5245;SDS011;54412;51.206;6.888;2024-03-17T11:05:01;5.03;;;3.30;;
5245;SDS011;54412;51.206;6.888;2024-03-17T11:07:31;5.47;;;2.73;;
5245;SDS011;54412;51.206;6.888;2024-03-17T11:10:02;3.50;;;2.90;;
5245;SDS011;54412;51.206;6.888;2024-03-17T11:17:55;5.20;;;3.50;;
5245;SDS011;54412;51.206;6.888;2024-03-17T11:23:56;2.90;;;2.67;;
5245;SDS011;54412;51.206;6.888;2024-03-17T11:26:31;3.73;;;3.33;;
5245;SDS011;54412;51.206;6.888;2024-03-17T11:28:59;5.03;;;2.63;;
5245;SDS011;54412;51.206;6.888;2024-03-17T11:34:25;3.57;;;2.70;;
5245;SDS011;54412;51.206;6.888;2024-03-17T11:36:57;3.60;;;2.90;;
5245;SDS011;54412;51.206;6.888;2024-03-17T11:42:18;3.93;;;3.10;;
5245;SDS011;54412;51.206;6.888;2024-03-17T11:47:41;2.83;;;2.63;;
5245;SDS011;54412;51.206;6.888;2024-03-17T11:50:08;4.00;;;3.57;;
5245;SDS011;54412;51.206;6.888;2024-03-17T11:52:37;3.20;;;2.90;;
5245;SDS011;54412;51.206;6.888;2024-03-17T11:55:14;7.90;;;2.67;;
5245;SDS011;54412;51.206;6.888;2024-03-17T11:57:43;4.37;;;3.03;;
5245;SDS011;54412;51.206;6.888;2024-03-17T12:00:20;6.17;;;3.27;;
5245;SDS011;54412;51.206;6.888;2024-03-17T12:02:48;6.43;;;3.37;;
5245;SDS011;54412;51.206;6.888;2024-03-17T12:05:15;2.90;;;2.70;;
5245;SDS011;54412;51.206;6.888;2024-03-17T12:07:44;7.63;;;3.10;;
5245;SDS011;54412;51.206;6.888;2024-03-17T12:10:10;5.17;;;3.17;;
5245;SDS011;54412;51.206;6.888;2024-03-17T12:12:38;3.50;;;2.83;;
5245;SDS011;54412;51.206;6.888;2024-03-17T12:15:11;4.93;;;2.73;;
5245;SDS011;54412;51.206;6.888;2024-03-17T12:17:44;6.37;;;3.10;;
5245;SDS011;54412;51.206;6.888;2024-03-17T12:20:16;3.53;;;2.87;;
5245;SDS011;54412;51.206;6.888;2024-03-17T12:22:44;10.07;;;3.07;;
5245;SDS011;54412;51.206;6.888;2024-03-17T12:25:16;5.63;;;2.70;;
5245;SDS011;54412;51.206;6.888;2024-03-17T12:27:45;4.13;;;2.70;;
5245;SDS011;54412;51.206;6.888;2024-03-17T12:30:13;4.20;;;3.27;;
5245;SDS011;54412;51.206;6.888;2024-03-17T12:32:40;3.00;;;2.70;;
5245;SDS011;54412;51.206;6.888;2024-03-17T12:35:11;5.10;;;3.00;;
5245;SDS011;54412;51.206;6.888;2024-03-17T12:37:43;3.50;;;2.63;;
5245;SDS011;54412;51.206;6.888;2024-03-17T12:40:20;4.30;;;2.47;;
5245;SDS011;54412;51.206;6.888;2024-03-17T12:42:48;2.87;;;2.60;;
5245;SDS011;54412;51.206;6.888;2024-03-17T12:45:18;9.27;;;3.30;;
5245;SDS011;54412;51.206;6.888;2024-03-17T12:47:48;3.17;;;2.20;;
5245;SDS011;54412;51.206;6.888;2024-03-17T12:50:16;3.40;;;3.10;;
5245;SDS011;54412;51.206;6.888;2024-03-17T12:52:51;7.87;;;2.80;;
5245;SDS011;54412;51.206;6.888;2024-03-17T12:55:19;5.10;;;3.23;;
5245;SDS011;54412;51.206;6.888;2024-03-17T13:01:03;4.73;;;3.03;;
5245;SDS011;54412;51.206;6.888;2024-03-17T13:03:34;4.53;;;2.63;;
5245;SDS011;54412;51.206;6.888;2024-03-17T13:06:02;4.23;;;2.73;;
5245;SDS011;54412;51.206;6.888;2024-03-17T13:08:32;4.00;;;3.10;;
5245;SDS011;54412;51.206;6.888;2024-03-17T13:10:59;4.03;;;2.43;;
5245;SDS011;54412;51.206;6.888;2024-03-17T13:13:25;4.23;;;2.80;;
5245;SDS011;54412;51.206;6.888;2024-03-17T13:15:51;3.80;;;2.83;;
5245;SDS011;54412;51.206;6.888;2024-03-17T13:18:18;3.03;;;2.43;;
5245;SDS011;54412;51.206;6.888;2024-03-17T13:20:45;5.43;;;2.40;;
5245;SDS011;54412;51.206;6.888;2024-03-17T13:23:12;2.53;;;2.00;;
5245;SDS011;54412;51.206;6.888;2024-03-17T13:25:38;2.77;;;2.00;;
5245;SDS011;54412;51.206;6.888;2024-03-17T13:28:08;3.00;;;2.70;;
5245;SDS011;54412;51.206;6.888;2024-03-17T13:30:34;6.40;;;3.03;;
5245;SDS011;54412;51.206;6.888;2024-03-17T13:33:01;4.93;;;2.40;;
5245;SDS011;54412;51.206;6.888;2024-03-17T13:35:36;5.03;;;2.63;;
5245;SDS011;54412;51.206;6.888;2024-03-17T13:38:05;7.00;;;2.93;;
5245;SDS011;54412;51.206;6.888;2024-03-17T13:40:32;4.47;;;1.97;;
5245;SDS011;54412;51.206;6.888;2024-03-17T13:42:59;4.17;;;2.90;;
5245;SDS011;54412;51.206;6.888;2024-03-17T13:45:26;8.07;;;2.77;;
5245;SDS011;54412;51.206;6.888;2024-03-17T13:48:00;3.23;;;2.30;;
5245;SDS011;54412;51.206;6.888;2024-03-17T13:50:35;2.60;;;2.40;;
5245;SDS011;54412;51.206;6.888;2024-03-17T13:53:02;6.83;;;2.50;;
5245;SDS011;54412;51.206;6.888;2024-03-17T13:55:28;3.00;;;2.50;;
5245;SDS011;54412;51.206;6.888;2024-03-17T13:57:55;3.00;;;2.30;;
5245;SDS011;54412;51.206;6.888;2024-03-17T14:00:24;5.77;;;2.60;;
5245;SDS011;54412;51.206;6.888;2024-03-17T14:02:52;2.77;;;2.30;;
5245;SDS011;54412;51.206;6.888;2024-03-17T14:05:21;6.13;;;2.80;;
5245;SDS011;54412;51.206;6.888;2024-03-17T14:07:49;4.13;;;2.47;;
5245;SDS011;54412;51.206;6.888;2024-03-17T14:10:16;2.63;;;2.40;;
5245;SDS011;54412;51.206;6.888;2024-03-17T14:12:44;2.23;;;2.00;;
5245;SDS011;54412;51.206;6.888;2024-03-17T14:15:10;4.07;;;2.20;;
5245;SDS011;54412;51.206;6.888;2024-03-17T14:17:45;4.13;;;1.93;;
5245;SDS011;54412;51.206;6.888;2024-03-17T14:20:12;4.30;;;2.30;;
5245;SDS011;54412;51.206;6.888;2024-03-17T14:22:43;5.80;;;2.60;;
5245;SDS011;54412;51.206;6.888;2024-03-17T14:25:14;5.13;;;2.67;;
5245;SDS011;54412;51.206;6.888;2024-03-17T14:27:44;4.63;;;2.70;;
5245;SDS011;54412;51.206;6.888;2024-03-17T14:30:14;3.57;;;2.73;;
5245;SDS011;54412;51.206;6.888;2024-03-17T14:32:43;4.17;;;2.77;;
5245;SDS011;54412;51.206;6.888;2024-03-17T14:35:12;5.00;;;3.10;;
5245;SDS011;54412;51.206;6.888;2024-03-17T14:37:40;3.40;;;3.10;;
5245;SDS011;54412;51.206;6.888;2024-03-17T14:40:08;6.83;;;3.27;;
5245;SDS011;54412;51.206;6.888;2024-03-17T14:42:42;2.90;;;2.63;;
5245;SDS011;54412;51.206;6.888;2024-03-17T14:45:08;2.97;;;2.40;;
5245;SDS011;54412;51.206;6.888;2024-03-17T14:47:35;2.97;;;2.10;;
5245;SDS011;54412;51.206;6.888;2024-03-17T14:50:01;4.87;;;2.93;;
5245;SDS011;54412;51.206;6.888;2024-03-17T14:52:30;3.70;;;2.70;;
5245;SDS011;54412;51.206;6.888;2024-03-17T14:54:56;3.80;;;3.00;;
5245;SDS011;54412;51.206;6.888;2024-03-17T14:57:22;3.33;;;2.50;;
5245;SDS011;54412;51.206;6.888;2024-03-17T14:59:48;3.83;;;2.73;;
5245;SDS011;54412;51.206;6.888;2024-03-17T15:02:13;3.87;;;2.37;;
5245;SDS011;54412;51.206;6.888;2024-03-17T15:04:40;5.40;;;2.30;;
5245;SDS011;54412;51.206;6.888;2024-03-17T15:07:06;3.87;;;2.37;;
5245;SDS011;54412;51.206;6.888;2024-03-17T15:09:33;4.70;;;2.60;;
5245;SDS011;54412;51.206;6.888;2024-03-17T15:11:59;5.10;;;2.93;;
5245;SDS011;54412;51.206;6.888;2024-03-17T15:14:26;5.80;;;2.53;;
5245;SDS011;54412;51.206;6.888;2024-03-17T15:16:52;5.03;;;2.80;;
5245;SDS011;54412;51.206;6.888;2024-03-17T15:19:18;7.37;;;2.77;;
5245;SDS011;54412;51.206;6.888;2024-03-17T15:21:44;5.43;;;2.43;;
5245;SDS011;54412;51.206;6.888;2024-03-17T15:24:10;6.30;;;2.90;;
5245;SDS011;54412;51.206;6.888;2024-03-17T15:26:36;5.67;;;2.90;;
5245;SDS011;54412;51.206;6.888;2024-03-17T15:29:01;3.47;;;2.40;;
5245;SDS011;54412;51.206;6.888;2024-03-17T15:31:29;4.70;;;2.83;;
5245;SDS011;54412;51.206;6.888;2024-03-17T15:33:55;3.13;;;2.20;;
5245;SDS011;54412;51.206;6.888;2024-03-17T15:36:22;3.73;;;3.03;;
5245;SDS011;54412;51.206;6.888;2024-03-17T15:38:49;4.47;;;2.23;;